Time;durP1;ratioP1;P1;durP2;ratioP2;P2;SDS_P1;SDS_P2;PMS_P1;PMS_P2;Temp;Humidity;BMP_temperature;BMP_pressure;BME280_temperature;BME280_humidity;BME280_pressure;Samples;Min_cycle;Max_cycle;Signal;HPM_P1;HPM_P2
2022/04/19 00:01:20;;;;;;;13.90;7.75;;;20.60;58.00;;;;;;5010318;28;87997;-63
2022/04/19 00:03:46;;;;;;;15.88;7.88;;;20.60;57.90;;;;;;5010559;28;87582;-64
2022/04/19 00:06:12;;;;;;;13.77;7.53;;;20.50;58.00;;;;;;5009454;28;87932;-64
2022/04/19 00:08:37;;;;;;;14.65;8.18;;;20.50;57.90;;;;;;4992363;28;90141;-64
2022/04/19 00:11:04;;;;;;;15.27;7.88;;;20.50;58.10;;;;;;5009604;28;87987;-64
2022/04/19 00:13:30;;;;;;;14.95;8.43;;;20.50;58.00;;;;;;5010020;28;87870;-64
2022/04/19 00:15:57;;;;;;;17.00;8.10;;;20.60;58.00;;;;;;5010343;28;87937;-65
2022/04/19 00:18:23;;;;;;;15.80;8.38;;;20.50;57.90;;;;;;5009233;28;87998;-64
2022/04/19 00:20:49;;;;;;;15.23;7.60;;;20.50;58.20;;;;;;4998496;28;91420;-64
2022/04/19 00:23:15;;;;;;;13.60;7.15;;;20.50;58.20;;;;;;5009678;28;87360;-64
2022/04/19 00:25:48;;;;;;;12.25;7.32;;;20.50;57.90;;;;;;5010017;28;87553;-64
2022/04/19 00:28:15;;;;;;;14.93;7.63;;;20.50;57.70;;;;;;5008732;28;87906;-64
2022/04/19 00:30:42;;;;;;;11.55;6.90;;;20.50;57.90;;;;;;5007164;28;92320;-64
2022/04/19 00:33:08;;;;;;;14.63;7.05;;;20.50;57.50;;;;;;5009601;28;88201;-64
2022/04/19 00:35:35;;;;;;;13.25;7.97;;;20.50;58.00;;;;;;5008982;28;87747;-64
2022/04/19 00:38:00;;;;;;;16.27;7.70;;;20.50;57.90;;;;;;5009325;28;88128;-64
2022/04/19 00:40:26;;;;;;;13.02;6.47;;;20.50;57.80;;;;;;5010474;28;88096;-64
2022/04/19 00:42:54;;;;;;;14.75;7.78;;;20.50;57.70;;;;;;5009996;28;88389;-64
2022/04/19 00:45:20;;;;;;;13.30;7.63;;;20.50;57.70;;;;;;5009125;28;87305;-65
2022/04/19 00:47:46;;;;;;;11.75;6.70;;;20.50;57.90;;;;;;5010463;28;87204;-64
2022/04/19 00:50:11;;;;;;;16.08;7.75;;;20.50;57.60;;;;;;5009681;28;87991;-64
2022/04/19 00:52:38;;;;;;;13.90;7.32;;;20.50;58.20;;;;;;5005628;28;90040;-64
2022/04/19 00:55:07;;;;;;;14.88;7.28;;;20.50;57.90;;;;;;5006281;28;88041;-65
2022/04/19 00:57:34;;;;;;;13.18;7.10;;;20.40;58.30;;;;;;5006563;28;90694;-64
2022/04/19 01:00:00;;;;;;;10.90;6.72;;;20.40;57.70;;;;;;5009860;28;88619;-64
2022/04/19 01:02:26;;;;;;;10.35;6.32;;;20.50;57.70;;;;;;5007477;28;89270;-64
2022/04/19 01:04:55;;;;;;;13.02;7.18;;;20.40;57.30;;;;;;5010039;28;88425;-64
2022/04/19 01:07:22;;;;;;;12.27;6.93;;;20.40;57.90;;;;;;5009170;28;87701;-66
2022/04/19 01:09:48;;;;;;;13.30;7.28;;;20.40;58.00;;;;;;5008362;28;88151;-64
2022/04/19 01:15:06;;;;;;;12.93;7.20;;;20.40;58.00;;;;;;5008729;28;88193;-64
2022/04/19 01:17:40;;;;;;;12.25;6.63;;;20.40;57.50;;;;;;5009841;28;87605;-64
2022/04/19 01:20:12;;;;;;;13.25;6.75;;;20.40;57.90;;;;;;5008535;28;89114;-64
2022/04/19 01:22:39;;;;;;;11.45;6.80;;;20.40;57.70;;;;;;5007438;28;87807;-65
2022/04/19 01:25:07;;;;;;;11.65;6.55;;;20.40;58.10;;;;;;5007010;28;88126;-64
2022/04/19 01:27:36;;;;;;;12.07;6.60;;;20.40;57.70;;;;;;5006789;28;91427;-64
2022/04/19 01:30:08;;;;;;;10.77;6.10;;;20.40;57.90;;;;;;5008781;28;88166;-64
2022/04/19 01:32:34;;;;;;;10.80;6.25;;;20.40;57.80;;;;;;5009398;28;88036;-65
2022/04/19 01:35:14;;;;;;;11.70;6.75;;;20.40;57.90;;;;;;5000481;28;87043;-64
2022/04/19 01:37:50;;;;;;;13.52;6.72;;;20.40;57.90;;;;;;5007216;28;89811;-65
2022/04/19 01:40:16;;;;;;;10.98;6.03;;;20.30;58.00;;;;;;5008614;28;88254;-64
2022/04/19 01:43:04;;;;;;;11.25;6.93;;;20.40;58.00;;;;;;5008270;28;87934;-64
2022/04/19 01:45:31;;;;;;;8.95;5.78;;;20.30;57.70;;;;;;5008272;28;88170;-64
2022/04/19 01:47:58;;;;;;;10.82;6.75;;;20.30;58.00;;;;;;5009394;28;87279;-64
2022/04/19 01:50:28;;;;;;;11.38;6.55;;;20.30;57.80;;;;;;5007899;28;87894;-64
2022/04/19 01:53:00;;;;;;;10.57;6.57;;;20.40;57.90;;;;;;5007307;28;87900;-64
2022/04/19 01:55:25;;;;;;;10.43;6.53;;;20.30;58.00;;;;;;5009094;28;87797;-64
2022/04/19 01:57:56;;;;;;;9.63;6.10;;;20.30;57.80;;;;;;5008676;28;88092;-65
2022/04/19 02:00:22;;;;;;;10.73;6.55;;;20.30;58.00;;;;;;5009148;28;87409;-64
2022/04/19 02:02:48;;;;;;;10.95;6.10;;;20.30;57.80;;;;;;5008474;28;86959;-64
2022/04/19 02:05:15;;;;;;;11.60;6.18;;;20.30;58.00;;;;;;5007751;28;87883;-64
2022/04/19 02:07:45;;;;;;;10.90;5.80;;;20.30;58.10;;;;;;5007635;28;87632;-64
2022/04/19 02:10:14;;;;;;;11.32;6.22;;;20.30;58.00;;;;;;5006950;28;89682;-64
2022/04/19 02:12:40;;;;;;;11.50;6.47;;;20.30;58.10;;;;;;5006990;28;88771;-64
2022/04/19 02:15:07;;;;;;;10.38;6.25;;;20.30;58.00;;;;;;5006470;28;87717;-64
2022/04/19 02:17:33;;;;;;;10.95;6.07;;;20.30;58.00;;;;;;5002329;28;89515;-64
2022/04/19 02:20:01;;;;;;;9.23;5.75;;;20.30;58.00;;;;;;5008665;28;87667;-64
2022/04/19 02:22:27;;;;;;;9.68;6.18;;;20.30;58.00;;;;;;5006566;28;90854;-64
2022/04/19 02:24:55;;;;;;;9.80;6.00;;;20.30;58.00;;;;;;5007921;28;88414;-65
2022/04/19 02:27:21;;;;;;;8.45;5.55;;;20.30;58.30;;;;;;5008346;28;87228;-64
2022/04/19 02:29:47;;;;;;;10.65;6.18;;;20.30;57.90;;;;;;5007970;28;88044;-64
2022/04/19 02:32:13;;;;;;;10.23;5.85;;;20.20;58.10;;;;;;5008313;28;88190;-64
2022/04/19 02:34:40;;;;;;;10.43;5.50;;;20.30;58.10;;;;;;5007601;28;88355;-64
2022/04/19 02:37:06;;;;;;;11.65;5.93;;;20.20;58.10;;;;;;5006899;28;88066;-65
2022/04/19 02:39:32;;;;;;;8.30;5.07;;;20.30;57.80;;;;;;5007496;28;88151;-65
2022/04/19 02:41:57;;;;;;;9.90;5.72;;;20.30;58.20;;;;;;5009288;28;88212;-64
2022/04/19 02:44:23;;;;;;;9.85;5.78;;;20.20;58.00;;;;;;5011469;28;87541;-64
2022/04/19 02:46:49;;;;;;;9.95;5.68;;;20.30;58.80;;;;;;4993375;28;89620;-64
2022/04/19 02:49:15;;;;;;;9.55;5.65;;;20.20;57.70;;;;;;5011128;28;88069;-64
2022/04/19 02:51:41;;;;;;;10.88;5.85;;;20.20;57.80;;;;;;5011423;28;87934;-64
2022/04/19 02:54:07;;;;;;;8.18;5.53;;;20.20;57.70;;;;;;5009362;28;87882;-64
2022/04/19 02:56:32;;;;;;;8.25;5.53;;;20.20;57.70;;;;;;5010664;28;86900;-64
2022/04/19 02:58:59;;;;;;;7.70;4.95;;;20.20;57.80;;;;;;5010372;28;89301;-64
2022/04/19 03:01:26;;;;;;;8.98;5.70;;;20.20;58.40;;;;;;5011447;28;88800;-65
2022/04/19 03:03:51;;;;;;;8.23;5.50;;;20.20;57.90;;;;;;5011975;28;87287;-65
2022/04/19 03:06:17;;;;;;;8.57;5.78;;;20.20;57.80;;;;;;5010442;28;87879;-64
2022/04/19 03:08:43;;;;;;;8.85;5.22;;;20.20;57.60;;;;;;5010638;28;87520;-64
2022/04/19 03:11:09;;;;;;;9.75;5.47;;;20.20;57.70;;;;;;5011068;28;87907;-65
2022/04/19 03:13:35;;;;;;;8.10;5.18;;;20.20;57.50;;;;;;5010461;28;88443;-65
2022/04/19 03:16:01;;;;;;;8.82;5.57;;;20.20;57.60;;;;;;5010456;28;86876;-65
2022/04/19 03:18:27;;;;;;;8.70;5.68;;;20.20;57.70;;;;;;5011450;28;87747;-64
2022/04/19 03:20:53;;;;;;;8.40;4.85;;;20.20;57.70;;;;;;5010870;28;88042;-65
2022/04/19 03:28:47;;;;;;;8.82;5.68;;;20.20;57.70;;;;;;5010599;28;87906;-65
2022/04/19 03:31:13;;;;;;;8.27;4.75;;;20.20;57.80;;;;;;5010437;28;88262;-65
2022/04/19 03:33:39;;;;;;;7.05;5.13;;;20.10;57.70;;;;;;5008818;28;87140;-65
2022/04/19 03:36:08;;;;;;;8.57;5.03;;;20.20;57.80;;;;;;5010833;28;87579;-64
2022/04/19 03:38:34;;;;;;;6.63;4.97;;;20.10;57.70;;;;;;5010346;28;88055;-65
2022/04/19 03:40:59;;;;;;;8.52;4.88;;;20.10;57.50;;;;;;5007909;28;90034;-65
2022/04/19 03:43:25;;;;;;;7.07;4.78;;;20.10;57.60;;;;;;5010598;28;87643;-65
2022/04/19 03:45:51;;;;;;;8.20;4.93;;;20.10;57.80;;;;;;5010161;28;87332;-64
2022/04/19 03:48:16;;;;;;;8.05;5.18;;;20.10;57.60;;;;;;5010072;28;88905;-64
2022/04/19 03:50:42;;;;;;;8.73;4.88;;;20.10;57.60;;;;;;5009932;28;88785;-65
2022/04/19 03:53:08;;;;;;;7.80;5.32;;;20.10;57.40;;;;;;5006619;28;87614;-65
2022/04/19 03:55:34;;;;;;;7.47;4.47;;;20.10;57.60;;;;;;5010427;28;87587;-64
2022/04/19 03:58:01;;;;;;;8.70;5.15;;;20.10;57.60;;;;;;5009663;28;88131;-64
2022/04/19 04:00:27;;;;;;;8.65;5.32;;;20.10;57.70;;;;;;5010700;28;88182;-64
2022/04/19 04:02:52;;;;;;;6.72;4.40;;;20.10;57.40;;;;;;5007244;28;87005;-64
2022/04/19 04:05:18;;;;;;;7.10;4.35;;;20.10;57.50;;;;;;5010123;28;87649;-64
2022/04/19 04:07:45;;;;;;;8.02;4.38;;;20.10;57.60;;;;;;5007261;28;91275;-64
2022/04/19 04:10:10;;;;;;;7.18;5.05;;;20.10;57.60;;;;;;5001216;28;91421;-64
2022/04/19 04:12:36;;;;;;;9.05;5.32;;;20.10;57.60;;;;;;5009307;28;88847;-65
2022/04/19 04:15:02;;;;;;;8.15;4.25;;;20.00;57.80;;;;;;5010232;28;87639;-64
2022/04/19 04:17:30;;;;;;;7.72;4.57;;;20.10;57.60;;;;;;5009137;28;92060;-63
2022/04/19 04:20:01;;;;;;;7.07;4.95;;;20.10;57.70;;;;;;5009392;28;87784;-64
2022/04/19 04:22:27;;;;;;;7.43;4.60;;;20.00;57.60;;;;;;5001145;28;87977;-64
2022/04/19 04:24:53;;;;;;;6.43;4.35;;;20.00;57.60;;;;;;5010419;28;87854;-65
2022/04/19 04:27:18;;;;;;;7.10;4.72;;;20.00;57.80;;;;;;5008847;28;87991;-65
2022/04/19 04:29:44;;;;;;;11.73;5.13;;;20.00;57.60;;;;;;5010166;28;87637;-64
2022/04/19 04:32:10;;;;;;;6.80;4.35;;;20.00;57.60;;;;;;5010349;28;87629;-64
2022/04/19 04:34:36;;;;;;;7.50;4.28;;;20.00;57.70;;;;;;5009664;28;87225;-64
2022/04/19 04:37:01;;;;;;;6.80;4.53;;;20.00;57.70;;;;;;5008097;28;88680;-64
2022/04/19 04:39:27;;;;;;;8.40;4.90;;;20.00;57.60;;;;;;5009007;28;88727;-64
2022/04/19 04:41:53;;;;;;;7.20;4.45;;;20.00;57.80;;;;;;5009715;28;86990;-64
2022/04/19 04:44:19;;;;;;;6.80;4.22;;;20.00;57.90;;;;;;5009781;28;87647;-64
2022/04/19 04:49:39;;;;;;;6.75;4.18;;;20.00;57.90;;;;;;5010096;28;87352;-64
2022/04/19 04:52:08;;;;;;;8.07;4.30;;;20.00;57.60;;;;;;5010063;28;87002;-64
2022/04/19 04:54:38;;;;;;;6.47;4.15;;;20.00;57.50;;;;;;5010344;28;87041;-64
2022/04/19 04:57:05;;;;;;;7.53;4.50;;;20.00;57.80;;;;;;5007805;28;91441;-64
2022/04/19 04:59:32;;;;;;;6.60;3.88;;;20.00;57.60;;;;;;5009167;28;88456;-65
2022/04/19 05:01:58;;;;;;;7.57;4.30;;;20.00;57.60;;;;;;4999314;28;88420;-64
2022/04/19 05:04:23;;;;;;;6.00;4.13;;;20.00;57.60;;;;;;5008845;28;87617;-64
2022/04/19 05:06:49;;;;;;;6.65;4.28;;;20.00;57.70;;;;;;5009257;28;87667;-64
2022/04/19 05:09:15;;;;;;;5.32;3.85;;;20.00;57.60;;;;;;5008637;28;88331;-65
2022/04/19 05:11:41;;;;;;;5.97;3.90;;;20.00;57.60;;;;;;5008201;28;87759;-65
2022/04/19 05:14:10;;;;;;;5.57;4.03;;;20.00;57.00;;;;;;5007905;28;87022;-64
2022/04/19 05:16:36;;;;;;;5.57;3.95;;;20.00;57.20;;;;;;5009419;28;88150;-64
2022/04/19 05:19:05;;;;;;;7.13;4.10;;;20.10;58.00;;;;;;5009656;28;87684;-64
2022/04/19 05:21:31;;;;;;;;;;;20.00;58.40;;;;;;5009741;28;87724;-64
2022/04/19 05:23:57;;;;;;;6.03;3.90;;;20.10;58.50;;;;;;5007671;28;88902;-64
2022/04/19 05:26:27;;;;;;;6.13;3.92;;;20.10;58.30;;;;;;5006767;28;91072;-64
2022/04/19 05:28:53;;;;;;;5.97;3.78;;;20.10;58.20;;;;;;5009241;28;88328;-64
2022/04/19 05:31:18;;;;;;;6.63;3.75;;;20.10;58.30;;;;;;5009207;28;87585;-65
2022/04/19 05:33:44;;;;;;;8.23;4.25;;;20.10;58.20;;;;;;5002128;28;88791;-64
2022/04/19 05:36:12;;;;;;;6.07;3.83;;;20.10;57.60;;;;;;5007166;28;88090;-64
2022/04/19 05:38:38;;;;;;;7.05;4.45;;;20.10;58.10;;;;;;5007850;28;88066;-65
2022/04/19 05:41:03;;;;;;;4.75;3.58;;;20.10;58.00;;;;;;5009723;28;86872;-64
2022/04/19 05:43:29;;;;;;;6.25;4.10;;;20.10;58.00;;;;;;5008013;28;86688;-65
2022/04/19 05:45:57;;;;;;;6.50;4.18;;;20.10;57.90;;;;;;5005733;28;93096;-65
2022/04/19 05:48:24;;;;;;;6.38;4.15;;;20.10;57.80;;;;;;5005362;28;90285;-65
2022/04/19 05:50:49;;;;;;;7.45;3.65;;;20.10;58.00;;;;;;5008888;28;87864;-63
2022/04/19 05:53:15;;;;;;;8.45;4.38;;;20.10;58.40;;;;;;5007914;28;90477;-64
2022/04/19 05:55:41;;;;;;;7.13;4.55;;;20.10;58.50;;;;;;5005070;28;91953;-65
2022/04/19 05:58:06;;;;;;;9.90;5.10;;;20.20;59.10;;;;;;5007892;28;87908;-65
2022/04/19 06:00:32;;;;;;;9.35;4.82;;;20.20;59.50;;;;;;5007925;28;88017;-64
2022/04/19 06:05:42;;;;;;;11.27;4.80;;;20.20;60.00;;;;;;5005884;28;87067;-65
2022/04/19 06:08:08;;;;;;;6.50;4.65;;;20.20;60.00;;;;;;5007493;28;87208;-65
2022/04/19 06:10:33;;;;;;;14.27;5.13;;;20.30;60.00;;;;;;5007255;28;88090;-64
2022/04/19 06:12:59;;;;;;;12.80;4.90;;;20.30;60.40;;;;;;5115834;22;87770;-65
2022/04/19 06:15:25;;;;;;;11.45;4.90;;;20.30;60.30;;;;;;5009343;28;90550;-64
2022/04/19 06:17:50;;;;;;;12.65;4.60;;;20.30;60.60;;;;;;5008225;28;88679;-64
2022/04/19 06:20:16;;;;;;;7.80;4.57;;;20.30;61.00;;;;;;5008232;28;88122;-64
2022/04/19 06:22:44;;;;;;;11.50;4.90;;;20.30;61.20;;;;;;5007788;28;87369;-64
2022/04/19 06:25:10;;;;;;;11.07;4.85;;;20.30;61.20;;;;;;5007581;28;87309;-64
2022/04/19 06:27:36;;;;;;;14.75;4.35;;;20.30;61.10;;;;;;4993110;28;91015;-65
2022/04/19 06:30:02;;;;;;;14.98;5.03;;;20.30;61.00;;;;;;4996303;28;87651;-64
2022/04/19 06:32:29;;;;;;;11.00;4.75;;;20.30;60.60;;;;;;4992974;28;90172;-64
2022/04/19 06:34:55;;;;;;;11.20;4.68;;;20.30;60.50;;;;;;5004768;28;90107;-65
2022/04/19 06:37:25;;;;;;;10.35;4.75;;;20.30;60.40;;;;;;5004160;28;91381;-64
2022/04/19 06:39:50;;;;;;;;;;;20.30;60.20;;;;;;4982843;28;89170;-64
2022/04/19 06:42:16;;;;;;;8.88;4.25;;;20.30;60.40;;;;;;5015398;28;88256;-65
2022/04/19 06:44:42;;;;;;;11.45;4.82;;;20.30;60.40;;;;;;5007778;28;88193;-64
2022/04/19 06:47:08;;;;;;;11.50;4.50;;;20.40;60.60;;;;;;5007229;28;87821;-64
2022/04/19 06:49:34;;;;;;;9.27;4.80;;;20.40;61.20;;;;;;5007652;28;87556;-64
2022/04/19 06:51:59;;;;;;;8.57;4.95;;;20.30;61.00;;;;;;5004281;28;88525;-66
2022/04/19 06:54:25;;;;;;;12.35;4.50;;;20.30;60.90;;;;;;5007106;28;87678;-64
2022/04/19 06:56:51;;;;;;;10.27;4.50;;;20.40;61.20;;;;;;5004101;28;90887;-64
2022/04/19 06:59:17;;;;;;;10.85;4.18;;;20.40;61.30;;;;;;5007390;28;87527;-65
2022/04/19 07:01:43;;;;;;;23.05;6.10;;;20.40;61.10;;;;;;5006937;28;87765;-65
2022/04/19 07:04:09;;;;;;;15.18;6.00;;;20.40;57.40;;;;;;5005450;28;89528;-65
2022/04/19 07:06:35;;;;;;;26.20;6.38;;;20.40;60.50;;;;;;4989448;28;92004;-65
2022/04/19 07:09:01;;;;;;;20.77;6.65;;;20.40;60.90;;;;;;5006548;28;88144;-66
2022/04/19 07:11:27;;;;;;;28.70;6.80;;;20.40;60.60;;;;;;5005728;28;90478;-65
2022/04/19 07:13:53;;;;;;;31.55;7.85;;;20.40;60.60;;;;;;5004828;28;90817;-65
2022/04/19 07:16:19;;;;;;;28.33;7.07;;;20.40;60.70;;;;;;5007430;28;87958;-65
2022/04/19 07:18:44;;;;;;;25.38;8.18;;;20.40;60.90;;;;;;5006221;28;88153;-64
2022/04/19 07:26:40;;;;;;;37.03;8.13;;;20.40;61.10;;;;;;5006205;28;87074;-64
2022/04/19 07:29:10;;;;;;;24.08;7.93;;;20.40;60.90;;;;;;5010056;28;88954;-66
2022/04/19 07:31:42;;;;;;;33.25;8.30;;;20.40;60.90;;;;;;5010153;28;88109;-66
2022/04/19 07:34:08;;;;;;;20.88;7.57;;;20.40;61.10;;;;;;5008197;28;91450;-65
2022/04/19 07:36:35;;;;;;;26.23;8.48;;;20.40;61.20;;;;;;5009100;28;88046;-65
2022/04/19 07:39:04;;;;;;;24.08;7.57;;;20.40;60.90;;;;;;5009549;28;87839;-65
2022/04/19 07:41:30;;;;;;;24.33;7.72;;;20.40;60.70;;;;;;5007831;28;89964;-64
2022/04/19 07:43:55;;;;;;;27.88;8.10;;;20.40;60.80;;;;;;5001203;28;90876;-65
2022/04/19 07:46:21;;;;;;;35.28;9.40;;;20.40;61.00;;;;;;4995639;28;90629;-65
2022/04/19 07:48:51;;;;;;;29.02;8.73;;;20.40;60.80;;;;;;5002218;28;87928;-66
2022/04/19 07:51:17;;;;;;;36.72;9.05;;;20.40;60.30;;;;;;5009892;28;88071;-66
2022/04/19 07:53:43;;;;;;;36.67;9.30;;;20.40;59.40;;;;;;4995624;28;90364;-65
2022/04/19 07:56:09;;;;;;;39.70;9.85;;;20.40;60.20;;;;;;5003021;28;90178;-65
2022/04/19 07:58:34;;;;;;;34.80;10.02;;;20.40;60.10;;;;;;5010580;28;88547;-65
2022/04/19 08:01:00;;;;;;;35.60;9.75;;;20.40;59.70;;;;;;5008326;28;87098;-65
2022/04/19 08:03:27;;;;;;;32.97;10.27;;;20.40;59.30;;;;;;5008986;28;88056;-65
2022/04/19 08:05:53;;;;;;;29.33;9.55;;;20.40;59.20;;;;;;5007430;28;87965;-65
2022/04/19 08:08:21;;;;;;;27.95;9.80;;;20.40;59.10;;;;;;5010188;28;87328;-65
2022/04/19 08:10:50;;;;;;;30.20;9.77;;;20.40;59.00;;;;;;5009932;28;86456;-66
2022/04/19 08:13:16;;;;;;;32.67;9.57;;;20.40;58.80;;;;;;5009082;28;87473;-66
2022/04/19 08:15:46;;;;;;;30.13;9.65;;;20.40;58.80;;;;;;5005187;28;89787;-65
2022/04/19 08:18:14;;;;;;;25.83;8.27;;;20.40;58.60;;;;;;5009175;28;88924;-65
2022/04/19 08:20:40;;;;;;;29.90;9.27;;;20.40;58.30;;;;;;5008772;28;87839;-65
2022/04/19 08:23:07;;;;;;;28.45;9.23;;;20.40;58.40;;;;;;5010483;28;88165;-65
2022/04/19 08:25:34;;;;;;;30.20;10.23;;;20.40;58.40;;;;;;5009207;28;87927;-65
2022/04/19 08:28:03;;;;;;;31.63;10.20;;;20.40;58.40;;;;;;5007795;28;87562;-66
2022/04/19 08:30:29;;;;;;;31.30;8.65;;;20.40;58.50;;;;;;5007672;28;90668;-66
2022/04/19 08:32:55;;;;;;;25.17;8.38;;;20.40;58.60;;;;;;5009409;28;87875;-65
2022/04/19 08:35:21;;;;;;;27.67;8.70;;;20.40;58.70;;;;;;5010671;28;87692;-65
2022/04/19 08:37:47;;;;;;;31.65;8.82;;;20.50;58.70;;;;;;5009884;28;87547;-65
2022/04/19 08:40:14;;;;;;;22.15;8.57;;;20.50;58.90;;;;;;5009360;28;87056;-65
2022/04/19 08:42:40;;;;;;;25.52;8.18;;;20.50;59.00;;;;;;5010320;28;89149;-65
2022/04/19 08:45:09;;;;;;;27.67;8.50;;;20.50;58.80;;;;;;5010008;28;88503;-65
2022/04/19 08:47:40;;;;;;;25.60;8.37;;;20.50;58.90;;;;;;5008706;28;87719;-65
2022/04/19 08:50:10;;;;;;;25.58;8.50;;;20.50;58.90;;;;;;5009636;28;87440;-65
2022/04/19 08:52:36;;;;;;;22.58;8.05;;;20.50;59.10;;;;;;5008957;28;88227;-66
2022/04/19 08:57:46;;;;;;;21.88;8.18;;;20.50;59.20;;;;;;5009829;28;88036;-65
2022/04/19 09:00:13;;;;;;;24.55;8.05;;;20.50;58.80;;;;;;5008416;28;90912;-66
2022/04/19 09:02:38;;;;;;;21.92;7.07;;;20.50;57.40;;;;;;5007931;28;91124;-65
2022/04/19 09:05:26;;;;;;;22.88;7.70;;;20.50;57.50;;;;;;5009258;28;88203;-65
2022/04/19 09:07:59;;;;;;;25.45;8.50;;;20.50;56.80;;;;;;4997728;28;88434;-65
2022/04/19 09:10:26;;;;;;;23.75;7.95;;;20.50;57.40;;;;;;5009413;28;87349;-65
2022/04/19 09:13:01;;;;;;;17.38;7.47;;;20.50;57.20;;;;;;5008657;28;88052;-65
2022/04/19 09:15:44;;;;;;;18.95;7.40;;;20.50;56.50;;;;;;5017199;28;90457;-65
2022/04/19 09:18:24;;;;;;;13.98;7.30;;;20.50;56.50;;;;;;5009753;28;87874;-65
2022/04/19 09:20:53;;;;;;;19.90;7.47;;;20.50;54.00;;;;;;5006896;28;90531;-65
2022/04/19 09:23:20;;;;;;;;;;;20.50;54.70;;;;;;5009420;28;87877;-65
2022/04/19 09:25:45;;;;;;;17.73;6.95;;;20.50;53.50;;;;;;5008949;28;91208;-65
2022/04/19 09:28:17;;;;;;;16.48;6.97;;;20.50;53.40;;;;;;5009486;28;88673;-65
2022/04/19 09:30:42;;;;;;;34.72;7.13;;;20.50;52.60;;;;;;5009869;28;87828;-65
2022/04/19 09:33:14;;;;;;;19.42;6.35;;;20.50;52.10;;;;;;5005616;28;89027;-65
2022/04/19 09:35:53;;;;;;;13.02;6.10;;;20.50;52.60;;;;;;5005481;28;91261;-65
2022/04/19 09:38:38;;;;;;;18.50;6.47;;;20.50;52.80;;;;;;5008528;28;87966;-65
2022/04/19 09:41:15;;;;;;;13.57;6.07;;;20.50;52.60;;;;;;5008695;28;87246;-66
2022/04/19 09:43:40;;;;;;;14.35;5.80;;;20.50;52.20;;;;;;5008376;28;88326;-65
2022/04/19 09:46:07;;;;;;;17.90;5.63;;;20.50;51.80;;;;;;5008674;28;87189;-65
2022/04/19 09:48:34;;;;;;;18.88;5.57;;;20.50;51.70;;;;;;5008661;28;87695;-65
2022/04/19 09:51:04;;;;;;;13.95;5.70;;;20.50;51.60;;;;;;5009356;28;87310;-65
2022/04/19 09:53:48;;;;;;;14.32;5.60;;;20.50;52.20;;;;;;5008343;28;87597;-65
2022/04/19 09:56:23;;;;;;;12.30;5.40;;;20.50;52.80;;;;;;5009052;28;88298;-65
2022/04/19 09:58:50;;;;;;;16.05;5.85;;;20.50;53.00;;;;;;5008880;28;88700;-65
2022/04/19 10:09:39;;;;;;;12.73;4.77;;;20.60;54.40;;;;;;5008294;28;87221;-65
2022/04/19 10:12:11;;;;;;;12.02;4.72;;;20.60;54.70;;;;;;5007509;28;89649;-65
2022/04/19 10:14:37;;;;;;;11.52;5.22;;;20.50;54.40;;;;;;5008597;28;87845;-65
2022/04/19 10:17:04;;;;;;;18.95;5.03;;;20.60;54.20;;;;;;5008522;28;87707;-65
2022/04/19 10:19:31;;;;;;;12.82;4.70;;;20.60;54.70;;;;;;5007162;28;88303;-65
2022/04/19 10:22:03;;;;;;;14.48;4.88;;;20.60;54.90;;;;;;5001458;28;88248;-65
2022/04/19 10:24:43;;;;;;;11.18;4.80;;;20.60;55.00;;;;;;4993025;28;92632;-65
2022/04/19 10:27:10;;;;;;;;;;;20.60;55.10;;;;;;5001439;28;91598;-65
2022/04/19 10:29:37;;;;;;;18.45;5.60;;;20.60;55.30;;;;;;5001376;28;87654;-65
2022/04/19 10:32:08;;;;;;;14.63;5.30;;;20.60;55.70;;;;;;5005865;28;88687;-65
2022/04/19 10:34:38;;;;;;;8.90;4.78;;;20.60;55.60;;;;;;4995454;28;91197;-65
2022/04/19 10:37:16;;;;;;;13.05;4.85;;;20.60;55.80;;;;;;5007637;28;88015;-65
2022/04/19 10:40:02;;;;;;;16.35;5.13;;;20.60;56.00;;;;;;5004049;28;87716;-65
2022/04/19 10:42:36;;;;;;;18.48;5.05;;;20.60;55.80;;;;;;5004092;28;89909;-65
2022/04/19 10:45:14;;;;;;;12.00;4.90;;;20.60;56.20;;;;;;5003914;28;92008;-64
2022/04/19 10:47:55;;;;;;;22.80;7.18;;;20.60;56.10;;;;;;5004678;28;88127;-64
2022/04/19 10:50:40;;;;;;;19.95;6.47;;;20.60;55.70;;;;;;5006720;28;88457;-64
2022/04/19 10:53:08;;;;;;;25.38;6.82;;;20.60;55.70;;;;;;5006020;28;87954;-64
2022/04/19 10:56:18;;;;;;;21.13;7.35;;;20.60;55.70;;;;;;5007253;28;87853;-64
2022/04/19 10:58:44;;;;;;;19.90;6.97;;;20.60;55.60;;;;;;5002047;28;89858;-64
2022/04/19 11:01:39;;;;;;;26.30;7.75;;;20.60;55.70;;;;;;5007161;28;87375;-64
2022/04/19 11:04:05;;;;;;;18.23;6.40;;;20.60;55.70;;;;;;4992510;28;87390;-64
2022/04/19 11:06:40;;;;;;;16.17;6.35;;;20.60;55.80;;;;;;5011838;28;87396;-64
2022/04/19 11:09:08;;;;;;;15.93;5.53;;;20.50;55.80;;;;;;5012093;28;87770;-64
2022/04/19 11:11:45;;;;;;;22.70;6.13;;;20.60;55.80;;;;;;5011978;28;87500;-64
2022/04/19 11:14:19;;;;;;;20.80;6.47;;;20.60;55.90;;;;;;5011300;28;87527;-65
2022/04/19 11:16:48;;;;;;;22.27;6.40;;;20.60;55.80;;;;;;4997416;28;91612;-64
2022/04/19 11:19:20;;;;;;;17.50;5.93;;;20.60;56.00;;;;;;5010229;28;88729;-64
2022/04/19 11:21:51;;;;;;;15.88;5.57;;;20.60;56.10;;;;;;5010558;28;87278;-64
2022/04/19 11:24:54;;;;;;;16.88;5.88;;;20.50;56.00;;;;;;5009687;28;87786;-64
2022/04/19 11:27:20;;;;;;;18.58;6.72;;;20.50;56.10;;;;;;5010858;28;88438;-64
2022/04/19 11:29:47;;;;;;;18.95;6.30;;;20.60;56.20;;;;;;5011483;28;88310;-65
2022/04/19 11:32:25;;;;;;;18.55;5.97;;;20.60;56.20;;;;;;5011227;28;87908;-64
2022/04/19 11:35:04;;;;;;;17.38;5.75;;;20.50;56.30;;;;;;5012069;28;86865;-64
2022/04/19 11:37:31;;;;;;;18.50;6.28;;;20.60;56.20;;;;;;5010454;28;88803;-64
2022/04/19 11:48:50;;;;;;;18.33;5.30;;;20.60;56.40;;;;;;4997818;28;87660;-64
2022/04/19 11:51:21;;;;;;;14.13;5.95;;;20.50;56.30;;;;;;5010704;28;87472;-64
2022/04/19 11:53:47;;;;;;;18.73;6.93;;;20.60;56.40;;;;;;5011499;28;88049;-64
2022/04/19 11:56:13;;;;;;;13.93;6.13;;;20.60;56.50;;;;;;5010245;28;87079;-64
2022/04/19 11:58:47;;;;;;;20.65;5.63;;;20.50;56.30;;;;;;5009766;28;90964;-64
2022/04/19 12:01:14;;;;;;;15.25;5.30;;;20.50;56.30;;;;;;5011370;28;88939;-64
2022/04/19 12:03:40;;;;;;;18.83;5.43;;;20.50;56.50;;;;;;5010665;28;87167;-64
2022/04/19 12:06:15;;;;;;;16.83;6.00;;;20.60;56.60;;;;;;5010349;28;88511;-64
2022/04/19 12:08:41;;;;;;;17.27;5.53;;;20.50;56.50;;;;;;5009977;28;89048;-64
2022/04/19 12:11:30;;;;;;;11.57;5.07;;;20.60;56.50;;;;;;5010251;28;88725;-65
2022/04/19 12:13:59;;;;;;;16.70;5.88;;;20.60;56.60;;;;;;5009516;28;87821;-64
2022/04/19 12:16:44;;;;;;;14.17;5.27;;;20.60;56.80;;;;;;5010206;28;87063;-64
2022/04/19 12:19:12;;;;;;;12.98;4.53;;;20.60;56.90;;;;;;5010307;28;88676;-65
2022/04/19 12:21:42;;;;;;;13.63;5.43;;;20.60;56.80;;;;;;5009815;28;87223;-64
2022/04/19 12:24:22;;;;;;;12.55;5.10;;;20.60;56.80;;;;;;5009053;28;87908;-65
2022/04/19 12:27:06;;;;;;;;;;;20.60;56.80;;;;;;5009450;28;86997;-64
2022/04/19 12:29:36;;;;;;;10.00;4.78;;;20.60;56.70;;;;;;5010336;28;88315;-64
2022/04/19 12:32:04;;;;;;;10.75;4.80;;;20.60;56.80;;;;;;5009581;28;87793;-65
2022/04/19 12:34:37;;;;;;;12.45;4.95;;;20.60;56.90;;;;;;5009536;28;89305;-65
2022/04/19 12:37:08;;;;;;;10.63;4.32;;;20.60;56.80;;;;;;5010480;28;87530;-64
2022/04/19 12:39:34;;;;;;;12.40;5.05;;;20.60;56.90;;;;;;5008555;28;91373;-64
2022/04/19 12:42:11;;;;;;;12.82;5.10;;;20.60;56.90;;;;;;5005053;28;88706;-65
2022/04/19 12:44:38;;;;;;;12.65;4.75;;;20.60;56.90;;;;;;5007080;28;88032;-65
2022/04/19 12:47:14;;;;;;;11.07;4.68;;;20.60;56.80;;;;;;5007821;28;88183;-65
2022/04/19 12:49:47;;;;;;;7.55;3.60;;;20.60;56.90;;;;;;5007436;28;92159;-65
2022/04/19 12:52:14;;;;;;;9.07;3.53;;;20.60;57.10;;;;;;5008198;28;90542;-65
2022/04/19 12:54:50;;;;;;;14.27;5.07;;;20.60;56.10;;;;;;5003204;28;87782;-65
2022/04/19 12:57:23;;;;;;;11.15;4.78;;;20.60;55.90;;;;;;5008810;28;87918;-64
2022/04/19 12:59:49;;;;;;;14.38;4.47;;;20.60;56.30;;;;;;5007547;28;88515;-64
2022/04/19 13:02:17;;;;;;;19.23;5.70;;;20.60;54.60;;;;;;4992645;28;89504;-65
2022/04/19 13:04:42;;;;;;;10.38;5.32;;;20.50;56.30;;;;;;5005782;28;87523;-65
2022/04/19 13:12:37;;;;;;;20.15;5.55;;;20.60;56.70;;;;;;5008090;28;88026;-65
2022/04/19 13:15:06;;;;;;;15.80;5.90;;;20.60;56.60;;;;;;5009135;28;87416;-64
2022/04/19 13:17:36;;;;;;;19.10;6.53;;;20.60;56.70;;;;;;5009561;28;87117;-65
2022/04/19 13:20:02;;;;;;;16.35;5.65;;;20.60;56.70;;;;;;5009133;28;88034;-65
2022/04/19 13:22:28;;;;;;;14.93;5.88;;;20.60;56.80;;;;;;5007144;28;89401;-65
2022/04/19 13:24:54;;;;;;;16.75;5.22;;;20.60;56.90;;;;;;5008317;28;88774;-65
2022/04/19 13:27:20;;;;;;;11.98;4.80;;;20.60;56.60;;;;;;5007379;28;88287;-65
2022/04/19 13:29:46;;;;;;;13.88;5.30;;;20.60;55.10;;;;;;4997273;28;89405;-65
2022/04/19 13:32:12;;;;;;;14.40;4.57;;;20.60;54.30;;;;;;5007879;28;87972;-65